Time;durP1;ratioP1;P1;durP2;ratioP2;P2;SDS_P1;SDS_P2;PMS_P1;PMS_P2;Temp;Humidity;BMP_temperature;BMP_pressure;BME280_temperature;BME280_humidity;BME280_pressure;Samples;Min_cycle;Max_cycle;Signal;HPM_P1;HPM_P2
2021/09/14 00:01:04;;;;;;;13.25;6.63;;;20.10;99.90;;;;;;5015198;28;20054;-79
2021/09/14 00:03:30;;;;;;;13.32;6.68;;;20.00;99.90;;;;;;4997349;28;20030;-79
2021/09/14 00:05:56;;;;;;;13.45;6.68;;;19.80;99.90;;;;;;5014738;28;20396;-78
2021/09/14 00:08:22;;;;;;;11.82;7.05;;;20.00;99.90;;;;;;5014799;28;20533;-79
2021/09/14 00:10:48;;;;;;;11.70;6.35;;;20.00;99.90;;;;;;5014842;28;20018;-78
2021/09/14 00:13:14;;;;;;;12.52;7.10;;;19.80;99.90;;;;;;5014410;28;20487;-78
2021/09/14 00:15:39;;;;;;;15.50;6.90;;;19.80;99.90;;;;;;5014813;28;20110;-79
2021/09/14 00:18:05;;;;;;;10.82;6.85;;;19.90;99.90;;;;;;4997113;28;20080;-78
2021/09/14 00:20:31;;;;;;;13.38;6.93;;;19.90;99.90;;;;;;5014879;28;20022;-78
2021/09/14 00:22:57;;;;;;;11.90;6.72;;;20.00;99.90;;;;;;5014633;28;20026;-78
2021/09/14 00:25:23;;;;;;;13.38;7.05;;;20.00;99.90;;;;;;4996847;28;20071;-79
2021/09/14 00:27:49;;;;;;;12.88;7.18;;;20.00;99.90;;;;;;5014477;28;20045;-78
2021/09/14 00:30:14;;;;;;;10.32;6.50;;;20.00;99.90;;;;;;5014416;28;20018;-79
2021/09/14 00:32:40;;;;;;;15.55;7.40;;;20.00;99.90;;;;;;5014662;28;20026;-78
2021/09/14 00:35:06;;;;;;;13.25;5.78;;;19.90;99.90;;;;;;5014342;28;20111;-79
2021/09/14 00:37:32;;;;;;;12.02;6.50;;;20.00;99.90;;;;;;5014278;28;20022;-79
2021/09/14 00:39:58;;;;;;;11.27;7.10;;;20.20;99.90;;;;;;5014771;28;20114;-78
2021/09/14 00:42:24;;;;;;;12.05;6.80;;;20.00;99.90;;;;;;5014236;28;20026;-78
2021/09/14 00:44:50;;;;;;;11.70;6.35;;;19.70;99.90;;;;;;5014152;28;20390;-79
2021/09/14 00:47:15;;;;;;;12.02;7.35;;;19.80;99.90;;;;;;5014163;28;20372;-79
2021/09/14 00:49:41;;;;;;;10.80;6.30;;;19.80;99.90;;;;;;5014000;28;20064;-79
2021/09/14 00:52:10;;;;;;;12.55;6.30;;;20.00;99.90;;;;;;5014064;28;20030;-79
2021/09/14 00:54:38;;;;;;;12.38;6.53;;;20.10;99.90;;;;;;5014021;28;20018;-78
2021/09/14 00:57:04;;;;;;;12.50;6.90;;;20.30;99.90;;;;;;5014126;28;20050;-78
2021/09/14 00:59:31;;;;;;;10.98;6.50;;;20.30;99.90;;;;;;5014003;28;20415;-78
2021/09/14 01:01:57;;;;;;;12.85;6.47;;;20.20;99.90;;;;;;5012484;28;20030;-79
2021/09/14 01:04:23;;;;;;;10.75;6.10;;;20.00;99.90;;;;;;5013868;28;20021;-78
2021/09/14 01:06:49;;;;;;;13.55;7.07;;;19.90;99.90;;;;;;5013722;28;20057;-79
2021/09/14 01:09:15;;;;;;;11.13;6.20;;;19.80;99.90;;;;;;4996116;28;20022;-79
2021/09/14 01:11:42;;;;;;;11.13;5.65;;;19.80;99.90;;;;;;5014200;28;20087;-78
2021/09/14 01:14:09;;;;;;;9.38;5.25;;;19.70;99.90;;;;;;5013733;28;20018;-78
2021/09/14 01:16:36;;;;;;;9.90;5.25;;;19.90;99.90;;;;;;4996157;28;20033;-78
2021/09/14 01:19:05;;;;;;;10.38;5.90;;;20.10;99.90;;;;;;4996049;28;20022;-78
2021/09/14 01:21:31;;;;;;;11.48;6.15;;;20.20;99.90;;;;;;5013629;28;20375;-78
2021/09/14 01:23:57;;;;;;;11.38;6.35;;;19.80;99.90;;;;;;5013949;28;20033;-78
2021/09/14 01:26:25;;;;;;;11.18;6.80;;;19.50;99.90;;;;;;5013555;28;20026;-78
2021/09/14 01:28:50;;;;;;;10.93;6.00;;;19.40;99.90;;;;;;5013481;28;20390;-79
2021/09/14 01:31:17;;;;;;;9.90;5.88;;;19.30;99.90;;;;;;4995884;28;20053;-79
2021/09/14 01:33:50;;;;;;;10.40;5.82;;;19.50;99.90;;;;;;5013577;28;20394;-78
2021/09/14 01:36:17;;;;;;;11.90;5.75;;;19.60;99.90;;;;;;4995818;28;20045;-79
2021/09/14 01:38:44;;;;;;;10.68;5.35;;;19.80;99.90;;;;;;4995894;28;20057;-78
2021/09/14 01:41:10;;;;;;;9.70;5.93;;;19.50;99.90;;;;;;4995759;28;20033;-79
2021/09/14 01:43:37;;;;;;;10.40;6.30;;;19.50;99.90;;;;;;5013557;28;20022;-79
2021/09/14 01:46:03;;;;;;;12.45;6.28;;;19.40;99.90;;;;;;4995815;28;20062;-78
2021/09/14 01:48:30;;;;;;;14.18;6.78;;;19.30;99.90;;;;;;5013684;28;20025;-78
2021/09/14 01:50:56;;;;;;;11.02;6.18;;;19.30;99.90;;;;;;5013364;28;20026;-79
2021/09/14 01:53:27;;;;;;;13.30;6.60;;;19.10;99.90;;;;;;5013563;28;20161;-79
2021/09/14 01:55:57;;;;;;;11.18;6.47;;;19.20;99.90;;;;;;5013386;28;20022;-79
2021/09/14 01:58:23;;;;;;;10.68;6.03;;;19.30;99.90;;;;;;4995447;28;20049;-81
2021/09/14 02:01:01;;;;;;;11.25;6.25;;;19.50;99.90;;;;;;4995946;28;20483;-81
2021/09/14 02:41:22;;;;;;;11.63;6.95;;;19.50;99.90;;;;;;5016502;28;20091;-79
2021/09/14 03:00:06;;;;;;;15.30;6.88;;;19.40;99.90;;;;;;5016172;28;20072;-78
2021/09/14 03:02:32;;;;;;;12.77;6.60;;;19.40;99.90;;;;;;5016245;28;20077;-79
2021/09/14 03:04:57;;;;;;;13.18;7.28;;;19.60;99.90;;;;;;5016105;28;20021;-79
2021/09/14 03:07:23;;;;;;;11.73;6.82;;;19.50;99.90;;;;;;4998007;28;20119;-78
2021/09/14 03:09:49;;;;;;;12.68;6.90;;;19.40;99.90;;;;;;5015994;28;20091;-78
2021/09/14 03:12:14;;;;;;;13.55;6.82;;;19.70;99.90;;;;;;5015984;28;20021;-79
2021/09/14 03:14:40;;;;;;;13.38;7.82;;;19.50;99.90;;;;;;5015844;28;20022;-79
2021/09/14 03:17:06;;;;;;;13.73;8.20;;;19.40;99.90;;;;;;5015843;28;20014;-77
2021/09/14 03:19:32;;;;;;;15.57;7.03;;;19.30;99.90;;;;;;5015963;28;20053;-79
2021/09/14 03:21:57;;;;;;;13.60;6.97;;;19.40;99.90;;;;;;5015806;28;20033;-79
2021/09/14 03:24:23;;;;;;;;;;;19.70;99.90;;;;;;4997521;28;20080;-78
2021/09/14 03:26:49;;;;;;;13.18;6.55;;;19.80;99.90;;;;;;5015787;28;19909;-79
2021/09/14 03:29:17;;;;;;;11.57;6.65;;;19.80;99.90;;;;;;5015989;28;20033;-79
2021/09/14 03:31:42;;;;;;;12.52;7.15;;;19.70;99.90;;;;;;4998006;28;20030;-78
2021/09/14 03:34:08;;;;;;;11.43;6.55;;;19.60;99.90;;;;;;5015509;28;20028;-77
2021/09/14 03:36:34;;;;;;;12.90;6.97;;;19.60;99.90;;;;;;5015496;28;20048;-78
2021/09/14 03:39:00;;;;;;;12.55;6.80;;;19.70;99.90;;;;;;5015430;28;20076;-79
2021/09/14 03:41:25;;;;;;;12.57;6.30;;;19.60;99.90;;;;;;5015392;28;20033;-79
2021/09/14 03:43:51;;;;;;;13.70;7.15;;;19.60;99.90;;;;;;5015308;28;20026;-78
2021/09/14 03:46:17;;;;;;;12.27;6.90;;;19.70;99.90;;;;;;5015282;28;20029;-78
2021/09/14 03:48:42;;;;;;;13.77;7.38;;;19.70;99.90;;;;;;5015153;28;20026;-78
2021/09/14 03:51:08;;;;;;;14.85;6.53;;;19.60;99.90;;;;;;5015224;28;20029;-78
2021/09/14 03:53:34;;;;;;;13.95;7.35;;;19.40;99.90;;;;;;5015321;28;20018;-78
2021/09/14 03:56:00;;;;;;;11.80;7.30;;;19.40;99.90;;;;;;5015115;28;20033;-78
2021/09/14 03:58:25;;;;;;;12.80;6.60;;;19.50;99.90;;;;;;5015202;28;20026;-78
2021/09/14 04:00:52;;;;;;;14.93;6.40;;;19.50;99.90;;;;;;5014984;28;20475;-78
2021/09/14 04:11:09;;;;;;;17.05;7.55;;;19.40;99.90;;;;;;5014809;28;20044;-78
2021/09/14 04:13:35;;;;;;;11.63;6.38;;;19.10;99.90;;;;;;5014772;28;20511;-78
2021/09/14 04:16:01;;;;;;;17.20;7.32;;;19.30;99.90;;;;;;5014777;28;20530;-78
2021/09/14 04:18:26;;;;;;;13.85;7.57;;;19.70;99.90;;;;;;5014917;28;20029;-77
2021/09/14 04:20:52;;;;;;;12.50;6.90;;;19.50;99.90;;;;;;5014693;28;20475;-79
2021/09/14 04:23:18;;;;;;;13.52;6.50;;;19.50;99.90;;;;;;5014555;28;20022;-78
2021/09/14 04:25:44;;;;;;;14.52;6.95;;;19.60;99.90;;;;;;5014624;28;20033;-78
2021/09/14 04:28:09;;;;;;;18.08;8.10;;;19.50;99.90;;;;;;5014467;28;20030;-78
2021/09/14 04:30:35;;;;;;;13.95;7.40;;;19.40;99.90;;;;;;5014435;28;20022;-78
2021/09/14 04:33:01;;;;;;;11.82;6.68;;;19.30;99.90;;;;;;5014789;28;20024;-78
2021/09/14 04:35:27;;;;;;;11.00;6.07;;;19.40;99.90;;;;;;4996534;28;20048;-77
2021/09/14 04:37:52;;;;;;;;;;;19.40;99.90;;;;;;5014851;28;20033;-78
2021/09/14 04:40:18;;;;;;;15.30;6.80;;;19.20;99.90;;;;;;5014354;28;19905;-77
2021/09/14 04:42:44;;;;;;;15.02;6.75;;;19.40;99.90;;;;;;5014282;28;20030;-78
2021/09/14 04:45:10;;;;;;;18.35;6.90;;;19.40;99.90;;;;;;4996570;28;20030;-78
2021/09/14 04:47:36;;;;;;;13.25;6.47;;;19.40;99.90;;;;;;5014381;28;20029;-77
2021/09/14 04:50:02;;;;;;;13.57;7.00;;;19.40;99.90;;;;;;4996546;28;20384;-78
2021/09/14 04:52:27;;;;;;;;;;;19.30;99.90;;;;;;5014516;28;20022;-78
2021/09/14 04:54:53;;;;;;;14.20;7.20;;;19.60;99.90;;;;;;5014496;28;19912;-78
2021/09/14 04:57:19;;;;;;;10.45;6.63;;;19.70;99.90;;;;;;5014389;28;20018;-77
2021/09/14 04:59:44;;;;;;;12.63;7.07;;;19.60;99.90;;;;;;4996435;28;20557;-78
2021/09/14 05:02:10;;;;;;;12.50;6.57;;;19.20;99.90;;;;;;5013976;28;20111;-78
2021/09/14 05:04:36;;;;;;;13.60;6.70;;;19.40;99.90;;;;;;4996245;28;20125;-78
2021/09/14 05:07:02;;;;;;;15.50;7.00;;;19.40;99.90;;;;;;4995969;28;20050;-78
2021/09/14 05:09:27;;;;;;;;;;;19.30;99.90;;;;;;5014442;28;20022;-78
2021/09/14 05:11:53;;;;;;;12.80;7.00;;;19.00;99.90;;;;;;4996156;28;19906;-77
2021/09/14 05:14:19;;;;;;;13.32;7.55;;;18.90;99.90;;;;;;5013723;28;20044;-77
2021/09/14 05:16:44;;;;;;;;;;;18.90;99.90;;;;;;5014162;28;20049;-78
2021/09/14 05:19:11;;;;;;;12.30;7.10;;;18.90;99.90;;;;;;4996071;28;19941;-78
2021/09/14 05:21:45;;;;;;;15.95;8.10;;;19.00;99.90;;;;;;5013742;28;20022;-78
2021/09/14 05:24:11;;;;;;;13.50;7.13;;;19.00;99.90;;;;;;5013649;28;20494;-77
2021/09/14 05:26:38;;;;;;;12.50;7.30;;;19.10;99.90;;;;;;5013558;28;20605;-78
2021/09/14 05:29:04;;;;;;;12.57;7.35;;;19.00;99.90;;;;;;5013487;28;20034;-78
2021/09/14 05:31:30;;;;;;;16.48;8.75;;;19.00;99.90;;;;;;5013540;28;20367;-77
2021/09/14 05:33:55;;;;;;;13.98;7.00;;;19.00;99.90;;;;;;4995907;28;20483;-77
2021/09/14 05:36:21;;;;;;;15.27;7.07;;;19.00;99.90;;;;;;5013508;28;20018;-78
2021/09/14 05:38:47;;;;;;;15.45;7.32;;;19.30;99.90;;;;;;5013461;28;20025;-78
2021/09/14 05:41:12;;;;;;;12.77;6.38;;;19.40;99.90;;;;;;5013421;28;20375;-78
2021/09/14 05:43:38;;;;;;;11.02;7.25;;;19.70;99.90;;;;;;5013465;28;20036;-77
2021/09/14 05:46:04;;;;;;;14.38;7.03;;;19.50;99.90;;;;;;5013339;28;20048;-79
2021/09/14 05:48:30;;;;;;;15.90;7.32;;;19.60;99.90;;;;;;5015853;28;20088;-78
2021/09/14 05:50:56;;;;;;;10.45;6.97;;;19.60;99.90;;;;;;5017567;28;20022;-78
2021/09/14 05:53:21;;;;;;;14.13;7.40;;;19.50;99.90;;;;;;5017422;28;20475;-78
2021/09/14 05:55:47;;;;;;;14.48;6.95;;;19.60;99.90;;;;;;5017384;28;20482;-78
2021/09/14 05:58:13;;;;;;;11.95;6.32;;;19.50;99.90;;;;;;5017306;28;20145;-77
2021/09/14 06:00:39;;;;;;;12.18;7.05;;;19.50;99.90;;;;;;5017353;28;20398;-78
2021/09/14 06:03:05;;;;;;;14.68;6.90;;;19.60;99.90;;;;;;5017353;28;20018;-78
2021/09/14 06:05:31;;;;;;;11.65;6.78;;;19.60;99.90;;;;;;5017095;28;20545;-77
2021/09/14 06:07:56;;;;;;;12.27;6.13;;;19.80;99.90;;;;;;5017117;28;20026;-78
2021/09/14 06:10:22;;;;;;;14.65;7.15;;;19.80;99.90;;;;;;5017137;28;20530;-79
2021/09/14 06:12:48;;;;;;;16.05;7.57;;;20.00;99.90;;;;;;5017059;28;20084;-78
2021/09/14 06:15:14;;;;;;;11.00;7.20;;;19.90;99.90;;;;;;5017027;28;20467;-78
2021/09/14 06:17:40;;;;;;;15.20;6.40;;;19.60;99.90;;;;;;5017080;28;20029;-78
2021/09/14 06:20:07;;;;;;;16.63;8.48;;;19.60;99.90;;;;;;5016930;28;20030;-78
2021/09/14 06:22:32;;;;;;;16.92;9.07;;;19.60;99.90;;;;;;5017058;28;20037;-78
2021/09/14 06:24:58;;;;;;;17.73;6.95;;;19.10;99.90;;;;;;5016772;28;20025;-78
2021/09/14 06:27:24;;;;;;;14.48;7.20;;;19.20;99.90;;;;;;5016935;28;20104;-77
2021/09/14 06:29:50;;;;;;;14.38;5.90;;;19.50;99.90;;;;;;5016640;28;20426;-78
2021/09/14 06:32:16;;;;;;;13.05;6.50;;;19.80;99.90;;;;;;5016712;28;20089;-78
2021/09/14 06:34:41;;;;;;;15.20;7.63;;;19.80;99.90;;;;;;5016677;28;20049;-78
2021/09/14 06:37:08;;;;;;;13.88;7.88;;;19.70;99.90;;;;;;5016663;28;20068;-78
2021/09/14 06:39:35;;;;;;;12.65;7.30;;;19.60;99.90;;;;;;5016672;28;20029;-78
2021/09/14 06:42:00;;;;;;;12.50;6.10;;;19.70;99.90;;;;;;4998894;28;20057;-78
2021/09/14 06:44:26;;;;;;;16.35;6.50;;;20.10;99.90;;;;;;5016717;28;20076;-77
2021/09/14 06:46:52;;;;;;;14.68;7.13;;;20.40;99.90;;;;;;4998825;28;20109;-78
2021/09/14 06:49:18;;;;;;;12.23;6.30;;;20.60;99.90;;;;;;5016335;28;20394;-78
2021/09/14 06:51:44;;;;;;;13.40;6.38;;;20.40;99.90;;;;;;5016394;28;20026;-77
2021/09/14 06:54:10;;;;;;;14.05;7.95;;;20.30;99.90;;;;;;4998603;28;20041;-79
2021/09/14 06:56:35;;;;;;;12.38;7.45;;;20.20;99.90;;;;;;5016413;28;20028;-78
2021/09/14 06:59:01;;;;;;;12.13;5.70;;;20.00;99.90;;;;;;5016312;28;20022;-78
2021/09/14 07:01:27;;;;;;;12.00;7.20;;;20.40;99.90;;;;;;5016215;28;20030;-78
2021/09/14 07:03:53;;;;;;;12.63;6.03;;;20.30;99.90;;;;;;4998509;28;20474;-78
2021/09/14 07:06:19;;;;;;;11.65;6.43;;;20.30;99.90;;;;;;5015920;28;20518;-78
2021/09/14 07:08:46;;;;;;;15.48;7.45;;;20.30;99.90;;;;;;5015945;28;20053;-78
2021/09/14 07:11:15;;;;;;;14.48;9.85;;;20.30;99.90;;;;;;5016212;28;20018;-78
2021/09/14 07:13:42;;;;;;;14.63;7.18;;;20.30;99.90;;;;;;5015911;28;20104;-77
2021/09/14 07:16:08;;;;;;;10.93;6.15;;;20.50;99.90;;;;;;5015904;28;20394;-78
2021/09/14 07:18:37;;;;;;;12.15;6.30;;;20.70;99.90;;;;;;4998232;28;20034;-78
2021/09/14 07:21:03;;;;;;;13.55;6.82;;;20.60;99.90;;;;;;5015823;28;20100;-78
2021/09/14 07:23:29;;;;;;;10.80;6.68;;;20.60;99.90;;;;;;5015829;28;20066;-77
2021/09/14 07:25:55;;;;;;;14.77;6.65;;;20.50;99.90;;;;;;5015885;28;20032;-78
2021/09/14 07:28:21;;;;;;;14.57;6.78;;;20.50;99.90;;;;;;5015662;28;20100;-78
2021/09/14 07:30:46;;;;;;;15.02;6.68;;;20.40;99.90;;;;;;5015449;28;20395;-78
2021/09/14 07:33:13;;;;;;;12.63;7.55;;;20.50;99.90;;;;;;5015919;28;20046;-76
2021/09/14 07:35:39;;;;;;;13.38;7.05;;;20.50;99.90;;;;;;4997931;28;20499;-78
2021/09/14 07:38:08;;;;;;;11.90;7.10;;;20.50;99.90;;;;;;4997877;28;20121;-78
2021/09/14 07:40:34;;;;;;;14.23;7.05;;;20.60;99.90;;;;;;5015469;28;20029;-78
2021/09/14 07:43:00;;;;;;;13.07;6.82;;;20.80;99.90;;;;;;5015353;28;20117;-78
2021/09/14 07:45:26;;;;;;;17.13;7.47;;;20.90;99.90;;;;;;4997779;28;20171;-77
2021/09/14 07:47:52;;;;;;;13.82;6.30;;;20.90;99.90;;;;;;4997577;28;20026;-77
2021/09/14 07:50:18;;;;;;;11.63;6.90;;;21.10;99.90;;;;;;5015274;28;20028;-77
2021/09/14 07:52:44;;;;;;;13.55;6.60;;;20.80;99.90;;;;;;5015383;28;20026;-78
2021/09/14 07:55:09;;;;;;;19.67;7.50;;;20.90;99.90;;;;;;5015364;28;20022;-78
2021/09/14 07:57:35;;;;;;;14.27;6.93;;;20.80;99.90;;;;;;5015082;28;20022;-78
2021/09/14 08:00:12;;;;;;;14.35;6.28;;;20.80;99.90;;;;;;5015060;28;20026;-78
2021/09/14 08:02:38;;;;;;;13.63;7.40;;;20.60;99.90;;;;;;5015755;28;20040;-77
2021/09/14 08:05:05;;;;;;;14.13;7.60;;;20.60;99.90;;;;;;5014933;28;20399;-77
2021/09/14 08:07:31;;;;;;;11.20;6.63;;;20.70;99.90;;;;;;5014587;28;20050;-78
2021/09/14 08:09:57;;;;;;;16.48;7.13;;;20.90;99.90;;;;;;5014604;28;20117;-77
2021/09/14 08:12:23;;;;;;;14.60;7.13;;;21.00;99.90;;;;;;5014518;28;20071;-78
2021/09/14 08:14:49;;;;;;;14.23;6.53;;;21.40;99.90;;;;;;5015343;28;20018;-77
2021/09/14 08:17:16;;;;;;;15.10;6.75;;;21.70;99.90;;;;;;5014728;28;20022;-78
2021/09/14 08:19:43;;;;;;;14.23;6.35;;;21.80;99.90;;;;;;5015226;28;20021;-78
2021/09/14 08:22:12;;;;;;;16.27;6.05;;;22.20;99.90;;;;;;5014850;28;20109;-77
2021/09/14 08:24:40;;;;;;;16.50;6.35;;;22.50;99.90;;;;;;5014514;28;20398;-78
2021/09/14 08:27:06;;;;;;;15.40;5.88;;;22.60;99.90;;;;;;4997081;28;20124;-77
2021/09/14 08:29:32;;;;;;;12.70;5.85;;;23.00;99.90;;;;;;5014715;28;20097;-78
2021/09/14 08:31:58;;;;;;;13.43;6.13;;;23.30;99.90;;;;;;5014491;28;20029;-78
2021/09/14 08:34:24;;;;;;;16.58;5.78;;;23.40;99.90;;;;;;4996835;28;20557;-78
2021/09/14 08:36:50;;;;;;;13.93;5.93;;;23.50;99.90;;;;;;4996812;28;20033;-78
2021/09/14 08:39:16;;;;;;;16.05;6.38;;;23.50;99.90;;;;;;4996772;28;20494;-78
2021/09/14 08:41:44;;;;;;;11.68;5.75;;;23.60;99.90;;;;;;5014557;28;20371;-78
2021/09/14 08:44:10;;;;;;;12.23;6.00;;;24.00;99.90;;;;;;5014287;28;20021;-78
2021/09/14 08:46:36;;;;;;;13.35;6.45;;;23.80;99.90;;;;;;4996664;28;20398;-78
2021/09/14 08:49:03;;;;;;;17.52;7.38;;;23.40;99.90;;;;;;5014125;28;20033;-78
2021/09/14 08:51:29;;;;;;;14.65;6.70;;;23.00;99.90;;;;;;5014207;28;20025;-78
2021/09/14 08:53:54;;;;;;;15.55;7.15;;;22.90;99.90;;;;;;5014152;28;20417;-78
2021/09/14 08:56:20;;;;;;;14.85;7.40;;;22.90;99.90;;;;;;5014082;28;20037;-78
2021/09/14 08:58:59;;;;;;;19.70;7.43;;;23.00;99.90;;;;;;5014634;28;20386;-78
2021/09/14 09:01:26;;;;;;;15.55;6.85;;;22.60;99.90;;;;;;5014342;28;20036;-78
2021/09/14 09:04:00;;;;;;;16.20;6.85;;;22.60;99.90;;;;;;5013919;28;20026;-77
2021/09/14 09:06:39;;;;;;;14.70;7.07;;;23.00;99.90;;;;;;5013778;28;20050;-78
2021/09/14 09:09:14;;;;;;;16.48;7.22;;;23.50;99.90;;;;;;5014121;28;20475;-78
2021/09/14 09:12:02;;;;;;;21.45;5.85;;;25.40;99.90;;;;;;5014201;28;20033;-78
2021/09/14 09:14:42;;;;;;;16.50;5.30;;;27.90;99.90;;;;;;5014144;28;20033;-79
2021/09/14 09:17:08;;;;;;;15.32;5.72;;;30.50;99.90;;;;;;5013802;28;20010;-79
2021/09/14 09:19:34;;;;;;;14.00;6.03;;;31.40;99.90;;;;;;4996085;28;20036;-79
2021/09/14 09:22:00;;;;;;;11.65;5.00;;;31.30;98.60;;;;;;5013035;28;20026;-80
2021/09/14 09:24:26;;;;;;;14.48;5.60;;;32.00;98.00;;;;;;4995840;28;20022;-79
2021/09/14 09:26:52;;;;;;;12.02;5.15;;;30.10;99.90;;;;;;5013953;28;20052;-79
2021/09/14 09:29:27;;;;;;;13.07;5.80;;;28.30;99.90;;;;;;4995975;28;20036;-77
2021/09/14 09:31:53;;;;;;;13.73;5.85;;;27.50;99.90;;;;;;4995996;28;20033;-78
2021/09/14 09:34:27;;;;;;;18.83;7.00;;;27.00;99.90;;;;;;5013579;28;20030;-78
2021/09/14 09:37:07;;;;;;;15.25;6.13;;;26.30;99.90;;;;;;5013614;28;20022;-78
2021/09/14 09:39:45;;;;;;;17.05;6.55;;;26.00;99.90;;;;;;5013763;28;20053;-79
2021/09/14 09:42:12;;;;;;;17.35;6.18;;;26.40;99.90;;;;;;4995581;28;20030;-80
2021/09/14 09:44:38;;;;;;;12.82;5.47;;;27.80;99.90;;;;;;4995772;28;20022;-80
2021/09/14 09:47:05;;;;;;;14.93;5.78;;;28.40;99.90;;;;;;5013394;28;20026;-80
2021/09/14 09:49:32;;;;;;;14.75;5.38;;;28.10;99.90;;;;;;5013315;28;20515;-79
2021/09/14 09:51:58;;;;;;;15.90;5.28;;;27.10;99.90;;;;;;5013363;28;20097;-79
2021/09/14 09:54:24;;;;;;;16.63;5.50;;;26.70;99.90;;;;;;4995699;28;20126;-80
2021/09/14 09:56:51;;;;;;;15.18;5.60;;;26.30;99.90;;;;;;5013295;28;20026;-79
2021/09/14 09:59:17;;;;;;;15.10;6.18;;;26.10;99.90;;;;;;5013600;28;20048;-79
2021/09/14 10:02:03;;;;;;;13.82;5.60;;;25.50;99.90;;;;;;5013570;28;20018;-80
2021/09/14 10:04:29;;;;;;;15.52;5.57;;;25.40;99.90;;;;;;5013804;28;20104;-79
2021/09/14 10:06:57;;;;;;;18.27;6.28;;;25.10;99.90;;;;;;5012999;28;20050;-80
2021/09/14 10:09:32;;;;;;;15.75;5.30;;;24.90;99.90;;;;;;4995533;28;20034;-79
2021/09/14 10:11:58;;;;;;;15.85;5.53;;;25.10;99.90;;;;;;5013733;28;20478;-79
2021/09/14 10:14:24;;;;;;;17.33;6.00;;;24.70;99.90;;;;;;5013158;28;20026;-79
2021/09/14 10:16:51;;;;;;;15.02;5.45;;;24.30;99.90;;;;;;4995395;28;20372;-79
2021/09/14 10:19:21;;;;;;;16.33;5.82;;;24.40;99.90;;;;;;4995539;28;20026;-79
2021/09/14 10:22:05;;;;;;;15.38;5.20;;;24.20;99.90;;;;;;5013109;28;20502;-80
2021/09/14 10:24:33;;;;;;;15.57;5.63;;;23.90;99.90;;;;;;4995432;28;20482;-79
2021/09/14 10:27:03;;;;;;;18.60;5.32;;;24.30;99.90;;;;;;5013323;28;20046;-79
2021/09/14 10:29:28;;;;;;;18.48;5.78;;;24.50;99.90;;;;;;5012984;28;20037;-80
2021/09/14 10:32:11;;;;;;;14.02;5.38;;;24.60;99.90;;;;;;5013053;28;20410;-80
2021/09/14 10:34:42;;;;;;;15.57;5.15;;;25.30;99.90;;;;;;5015219;28;20026;-79
2021/09/14 10:37:11;;;;;;;16.83;5.18;;;25.70;99.90;;;;;;4998801;28;20030;-79
2021/09/14 10:39:41;;;;;;;15.13;4.75;;;25.80;99.90;;;;;;5016612;28;20029;-80
2021/09/14 10:42:18;;;;;;;15.15;5.13;;;25.70;99.90;;;;;;5016862;28;20037;-79
2021/09/14 10:44:49;;;;;;;16.20;4.97;;;25.50;99.90;;;;;;5016506;28;20030;-80
2021/09/14 10:47:20;;;;;;;16.60;5.13;;;25.40;99.90;;;;;;4998643;28;20033;-79
2021/09/14 10:49:54;;;;;;;13.95;4.57;;;25.10;99.90;;;;;;5016672;28;20030;-78
2021/09/14 10:52:37;;;;;;;14.60;4.75;;;25.10;99.90;;;;;;4998546;28;20021;-79
2021/09/14 10:55:15;;;;;;;14.43;5.07;;;25.30;99.90;;;;;;4989228;28;20033;-78
2021/09/14 10:57:56;;;;;;;13.23;4.45;;;25.30;99.90;;;;;;5011416;28;20497;-78
2021/09/14 11:00:34;;;;;;;12.05;4.32;;;25.70;99.90;;;;;;4988664;28;20294;-78
2021/09/14 11:03:02;;;;;;;11.90;4.03;;;25.90;99.90;;;;;;5016514;28;20022;-78
2021/09/14 11:05:33;;;;;;;12.88;4.30;;;25.70;99.90;;;;;;5015905;28;20028;-78
2021/09/14 11:08:09;;;;;;;12.50;4.13;;;26.00;99.90;;;;;;5016164;28;20022;-78
2021/09/14 11:10:41;;;;;;;15.18;4.07;;;25.80;99.90;;;;;;5016478;28;20076;-78
2021/09/14 11:13:08;;;;;;;16.33;4.20;;;25.60;99.90;;;;;;5016224;28;20097;-78
2021/09/14 11:15:34;;;;;;;11.60;4.18;;;25.10;99.90;;;;;;4998342;28;20037;-78
2021/09/14 11:18:01;;;;;;;12.25;4.38;;;25.50;99.90;;;;;;5015841;28;20368;-79
2021/09/14 11:20:29;;;;;;;11.85;3.92;;;26.00;99.90;;;;;;4998255;28;20173;-79
2021/09/14 11:22:56;;;;;;;13.18;4.10;;;26.10;99.90;;;;;;5015840;28;20425;-79
2021/09/14 11:25:28;;;;;;;15.13;4.30;;;26.40;99.90;;;;;;5015720;28;20236;-79
2021/09/14 11:28:11;;;;;;;11.77;4.18;;;26.40;99.90;;;;;;5015968;28;20018;-79
2021/09/14 11:30:37;;;;;;;12.50;4.03;;;26.70;99.90;;;;;;4998732;28;20026;-79
2021/09/14 11:33:04;;;;;;;12.23;3.90;;;26.60;99.90;;;;;;4998030;28;20033;-79
2021/09/14 11:35:34;;;;;;;14.70;4.20;;;27.00;99.90;;;;;;4998030;28;20164;-79
2021/09/14 11:38:09;;;;;;;11.90;4.10;;;26.20;99.90;;;;;;5016361;28;20026;-79
2021/09/14 11:40:45;;;;;;;11.32;4.28;;;26.40;99.90;;;;;;5016133;28;20026;-79
2021/09/14 11:43:20;;;;;;;13.27;4.32;;;26.20;99.90;;;;;;5016040;28;20029;-79
2021/09/14 11:45:46;;;;;;;11.93;4.43;;;26.40;99.90;;;;;;5015135;28;20410;-79
2021/09/14 11:48:30;;;;;;;11.85;4.55;;;26.70;99.90;;;;;;5015259;28;20517;-79
2021/09/14 11:51:10;;;;;;;11.32;4.10;;;27.00;99.90;;;;;;5015620;28;20041;-80
2021/09/14 11:53:38;;;;;;;14.32;4.50;;;28.20;99.90;;;;;;5015792;28;20064;-79
2021/09/14 11:56:13;;;;;;;12.60;4.00;;;27.60;99.90;;;;;;5015222;28;20583;-79
2021/09/14 11:58:42;;;;;;;14.27;3.88;;;28.10;99.90;;;;;;4997536;28;20065;-79
2021/09/14 12:01:09;;;;;;;12.32;3.90;;;27.30;99.90;;;;;;4997488;28;20036;-79
2021/09/14 12:03:40;;;;;;;10.25;3.47;;;27.20;99.90;;;;;;4997458;28;20504;-79
2021/09/14 12:06:07;;;;;;;10.90;3.20;;;27.30;99.90;;;;;;5014923;28;20049;-79
2021/09/14 12:08:35;;;;;;;11.82;3.67;;;27.30;99.90;;;;;;5014918;28;20486;-79
2021/09/14 12:11:03;;;;;;;10.85;3.80;;;27.20;99.90;;;;;;5014877;28;20389;-79
2021/09/14 12:13:36;;;;;;;11.57;3.90;;;27.40;99.90;;;;;;4997258;28;20388;-79
2021/09/14 12:16:13;;;;;;;12.10;3.78;;;27.90;99.90;;;;;;5015132;28;20026;-79
2021/09/14 12:18:42;;;;;;;8.10;3.10;;;29.10;99.90;;;;;;5015387;28;20168;-80
2021/09/14 12:21:09;;;;;;;10.07;3.20;;;29.60;99.90;;;;;;5014746;28;20520;-79
2021/09/14 12:23:35;;;;;;;10.15;3.35;;;29.50;99.90;;;;;;5014916;28;20097;-80
2021/09/14 12:26:01;;;;;;;9.55;3.13;;;30.50;98.80;;;;;;5014842;28;20026;-80
2021/09/14 12:28:27;;;;;;;10.40;3.38;;;30.80;98.40;;;;;;5014792;28;20052;-80
2021/09/14 12:30:53;;;;;;;13.13;3.63;;;32.00;96.80;;;;;;5014539;28;20026;-80
2021/09/14 12:33:19;;;;;;;9.90;3.35;;;33.30;94.50;;;;;;5014499;28;20426;-80
2021/09/14 12:35:44;;;;;;;9.13;3.20;;;33.80;93.70;;;;;;5014468;28;20032;-80
2021/09/14 12:38:10;;;;;;;9.90;3.28;;;32.90;93.00;;;;;;4996841;28;20465;-80
2021/09/14 12:40:37;;;;;;;9.10;3.28;;;31.50;94.70;;;;;;5014325;28;20022;-80
2021/09/14 12:43:03;;;;;;;11.38;3.33;;;30.40;95.70;;;;;;5014339;28;20507;-80
2021/09/14 12:45:29;;;;;;;12.88;3.55;;;30.60;96.40;;;;;;4996710;28;20509;-80
2021/09/14 12:47:55;;;;;;;12.82;3.95;;;31.00;96.90;;;;;;5014720;28;20101;-79
2021/09/14 12:50:21;;;;;;;8.95;3.30;;;31.30;94.90;;;;;;5014213;28;20079;-79
2021/09/14 12:52:47;;;;;;;11.48;3.22;;;34.30;92.90;;;;;;5014246;28;20386;-81
2021/09/14 12:55:13;;;;;;;12.00;3.90;;;34.90;90.40;;;;;;5014153;28;20028;-81
2021/09/14 12:57:38;;;;;;;9.80;3.13;;;39.00;83.00;;;;;;4996417;28;20029;-80
2021/09/14 13:00:05;;;;;;;10.98;3.00;;;34.90;82.20;;;;;;5014323;28;20026;-80
2021/09/14 13:02:31;;;;;;;10.60;3.00;;;31.20;91.40;;;;;;5014037;28;20032;-80
2021/09/14 13:04:56;;;;;;;8.77;2.80;;;30.50;94.00;;;;;;5014519;28;20029;-80
2021/09/14 13:07:22;;;;;;;9.65;3.25;;;29.80;94.70;;;;;;5013766;28;20045;-80
2021/09/14 13:09:48;;;;;;;8.55;2.80;;;34.60;91.70;;;;;;5014109;28;20386;-81
2021/09/14 13:12:20;;;;;;;10.68;3.42;;;36.60;81.60;;;;;;5013837;28;20072;-81
2021/09/14 13:17:32;;;;;;;9.20;3.10;;;34.10;80.10;;;;;;5014117;28;20069;-80
2021/09/14 13:19:59;;;;;;;10.63;3.50;;;31.20;89.10;;;;;;4996106;28;20080;-80
2021/09/14 13:22:25;;;;;;;9.48;3.58;;;36.60;82.90;;;;;;4996038;28;20021;-81
2021/09/14 13:24:51;;;;;;;9.55;3.28;;;40.90;70.70;;;;;;4995968;28;20479;-81
2021/09/14 13:27:17;;;;;;;11.10;3.10;;;39.10;63.70;;;;;;5013663;28;20060;-80
2021/09/14 13:29:42;;;;;;;9.52;2.90;;;33.70;75.90;;;;;;5013541;28;20080;-80
2021/09/14 13:32:08;;;;;;;8.77;2.75;;;32.30;83.60;;;;;;4996033;28;20026;-80
2021/09/14 13:34:34;;;;;;;12.18;3.00;;;30.30;90.70;;;;;;5013841;28;20386;-79
2021/09/14 13:36:59;;;;;;;11.77;3.53;;;28.70;93.60;;;;;;4995930;28;20482;-80
2021/09/14 13:39:26;;;;;;;9.80;3.03;;;31.00;94.80;;;;;;5013475;28;20037;-80
2021/09/14 13:41:52;;;;;;;9.10;2.97;;;31.10;91.30;;;;;;4995906;28;20022;-79
2021/09/14 13:47:06;;;;;;;11.98;3.42;;;28.80;93.70;;;;;;5013686;28;20026;-79